Newman, Western Australia

5:30 PM WST on September 15, 2014 (GMT +0800)
Newman | Change Station
CLOSE
Current Station
Airport
Location: Newman Airport,
Elevation: 1722 ft
Nearby Weather Stations

Elev 1722 ft 23.42 °S, 119.80 °E | Updated 30 minutes ago

Clear
Clear
91 °F
Feels Like 91 °F
N
7
Wind Variable Wind from North

Today
High -- | Low -- °F
--% Chance of Precip.
Yesterday
High -- | Low -- °F
Precip. -- in
5:58 AM 5:54 PM
Waning Gibbous, 57% visible
Pressure 29.92 in
Visibility -9999.0 miles
Clouds
Dew Point 16 °F
Humidity 6%
Rainfall 0.00 in
Snow Depth Not available.
UV Not available.
Pollen Not available.
Air Quality Not available.
Flu Activity Not available.
METAR YNWN 150900Z AUTO 35006KT //// // NCD 33/M09 Q1013

More Conditions Fewer Conditions

Pressure 29.92 in
Visibility -9999.0 miles
Clouds
Dew Point 16 °F
Humidity 6%
Rainfall 0.00 in
Snow Depth Not available.
UV Not available.
Pollen Not available.
Air Quality Not available.
Flu Activity Not available.
METAR YNWN 150900Z AUTO 35006KT //// // NCD 33/M09 Q1013

More Conditions Fewer Conditions

10-Day Weather Forecast

Almanac

Astronomy

Sep. 15, 2014 Rise Set
Actual Time 5:58 AM WST 5:54 PM WST
Civil Twilight 5:35 AM WST 6:17 PM WST
Nautical Twilight 5:09 AM WST 6:43 PM WST
Astronomical Twilight 4:43 AM WST 7:09 PM WST
Moon No Moon Rise 10:30 AM WST
Length of Visible Light 12h 41m
Length of Day
11h 56m
Tomorrow will be 1m 20s longer.
Waning Gibbous, 57% of the Moon is Illuminated
Today
Waning Gibbous
Sep 15
Last Quarter
Sep 24
New
Oct 1
First Quarter
Oct 8
Full

Yesterday's Extremes

Country Highs Country Lows

Community

WunderPhotos

Upload Photos

1,753,426 photos uploaded!

Nearby

Snow Depth

Not available.

Earthquake Activity

City Distance Mag. Time & Date
No recent earthquake activity has been reported nearby.
Minimum magnitude displayed is 2.5.

Coastal Water Temperatures

Place Temperature
No Stations Reporting

Nearby Weather Stations